Terminal Aerodrome Forecast
Issued by NWS

Home | Current Version | Previous Version | Text Only | Print | Product List | Glossary On
Versions: 1 2 3 4 5 6 7 8 9 10 11 12 13 14 15 16 17 18 19 20 21 22 23 24
000
FTUS41 KCTP 302347
TAFBFD
TAF
KBFD 302347Z 0100/0124 12006KT P6SM -RA OVC020
     FM010300 14007KT 3SM -RA BR OVC007 WS020/20040KT
     FM012000 19006KT 6SM BR OVC009=

USA.gov is the U.S. government's official web portal to all federal, state and local government web resources and services.